Meteorological Aerodrome Report (METAR)

METAR

Data at: 1710 UTC 22 Oct 2021

METAR for:NVSC (Sola/Vanua Lava Arpt, TO, NV)
Text:NVSC 221500Z AUTO 02001KT //// // NCD ///// Q1013
Pressure (altimeter):29.91 inches Hg (1013.0 mb)
Winds:from the NNE (20 degrees) at 1 MPH (1 knots; 0.5 m/s)
Ceiling:at least 12,000 feet AGL
Clouds:sky clear below 12,000 feet AGL

METAR

Data at: 1710 UTC 22 Oct 2021

METAR for:NVSG (Longana Arpt, PA, NV)
Text:NVSG 221500Z AUTO 00000KT //// // NCD 23/22 Q1011
Temperature: 23.0°C ( 73°F)
Dewpoint: 22.0°C ( 72°F) [RH = 94%]
Pressure (altimeter):29.85 inches Hg (1011.0 mb)
Winds:calm
Ceiling:at least 12,000 feet AGL
Clouds:sky clear below 12,000 feet AGL

METAR

Data at: 1710 UTC 22 Oct 2021

METAR for:NVSS (Santo/Pekoa Intl, SA, NV)
Text:NVSS 221500Z 27003KT 9999 FEW025 24/23 Q1014
Temperature: 24.0°C ( 75°F)
Dewpoint: 23.0°C ( 73°F) [RH = 94%]
Pressure (altimeter):29.94 inches Hg (1014.0 mb)
Winds:from the W (270 degrees) at 3 MPH (3 knots; 1.5 m/s)
Visibility:6 or more sm (10+ km)
Ceiling:at least 12,000 feet AGL
Clouds: few clouds at 2500 feet AGL

METAR

Data at: 1710 UTC 22 Oct 2021

METAR for:NVSL (Malekula Isl/Lamap, MA, NV)
Text:No data found

METAR

Data at: 1710 UTC 22 Oct 2021

METAR for:NVSP (Norsup Arpt, MA, NV)
Text:No data found

METAR

Data at: 1710 UTC 22 Oct 2021

METAR for:NVVV (Efate/Bauerfield Int, SE, NV)
Text:NVVV 221700Z 03002KT 9999 FEW020 SCT120 22/21 Q1014
Temperature: 22.0°C ( 72°F)
Dewpoint: 21.0°C ( 70°F) [RH = 94%]
Pressure (altimeter):29.94 inches Hg (1014.0 mb)
Winds:from the NNE (30 degrees) at 2 MPH (2 knots; 1.0 m/s)
Visibility:6 or more sm (10+ km)
Ceiling:at least 12,000 feet AGL
Clouds: few clouds at 2000 feet AGL, scattered clouds at 12000 feet AGL

METAR

Data at: 1710 UTC 22 Oct 2021

METAR for:NVVW (Tanna Arpt, TA, NV)
Text:NVVW 221500Z AUTO 13001KT //// // NCD 23/22 Q1013
Temperature: 23.0°C ( 73°F)
Dewpoint: 22.0°C ( 72°F) [RH = 94%]
Pressure (altimeter):29.91 inches Hg (1013.0 mb)
Winds:from the SE (130 degrees) at 1 MPH (1 knots; 0.5 m/s)
Ceiling:at least 12,000 feet AGL
Clouds:sky clear below 12,000 feet AGL

METAR

Data at: 1710 UTC 22 Oct 2021

METAR for:NVVA (Aneityum/Mystery Isl, TA, NV)
Text:NVVA 221500Z AUTO 13001KT //// // NCD ///// Q1014
Pressure (altimeter):29.94 inches Hg (1014.0 mb)
Winds:from the SE (130 degrees) at 1 MPH (1 knots; 0.5 m/s)
Ceiling:at least 12,000 feet AGL
Clouds:sky clear below 12,000 feet AGL

METAR

Data at: 1710 UTC 22 Oct 2021

NVVV 221700Z 03002KT 9999 FEW020 SCT120 22/21 Q1014
NVSC 221500Z AUTO 02001KT //// // NCD ///// Q1013
NVSG 221500Z AUTO 00000KT //// // NCD 23/22 Q1011
NVSS 221500Z 27003KT 9999 FEW025 24/23 Q1014
No Data available for NVSL
No Data available for NVSP
NVVW 221500Z AUTO 13001KT //// // NCD 23/22 Q1013
NVVA 221500Z AUTO 13001KT //// // NCD ///// Q1014